Rodeiro, Brazil
Current Conditions -  °F | °C
As of 2:00 PM on Monday 20 Oct 2014 (Local Time) from SBJF Reporting Station
Broken Clouds Broken Clouds  
Wind Chill: 79°   Ceiling: 10000
Heat Index: 81°   Visibility: 5mi
Dew Point: 64°   Wind: 9mph
Humidity: 61%   Direction: 190°S
Pressure: 30"   Gusts: NA
Location:  21.2°S, 42.86°W
Report Text: SBJF 201700Z 19008KT 8000 FEW020 SCT060 BKN100 26/18 Q1016
Loading
Personal Weather Stations






























Interactive Weather Map
Tropical Storm Tracking
New forecast layout! Learn more

10-Day Weather Forecast

Advertisements
Track Severe Weather on mobile